sensor_id;sensor_type;location;lat;lon;timestamp;temperature;humidity
24802;DHT22;12898;50.520;12.152;2023-02-22T00:00:52;7.20;99.90
24802;DHT22;12898;50.520;12.152;2023-02-22T00:03:27;7.20;99.90
24802;DHT22;12898;50.520;12.152;2023-02-22T00:06:04;7.20;99.90
24802;DHT22;12898;50.520;12.152;2023-02-22T00:08:34;7.20;99.90
24802;DHT22;12898;50.520;12.152;2023-02-22T00:11:03;7.20;99.90
24802;DHT22;12898;50.520;12.152;2023-02-22T00:13:33;7.20;99.90
24802;DHT22;12898;50.520;12.152;2023-02-22T00:16:00;7.20;99.90
24802;DHT22;12898;50.520;12.152;2023-02-22T00:18:27;7.20;99.90
24802;DHT22;12898;50.520;12.152;2023-02-22T00:20:57;7.20;99.90
24802;DHT22;12898;50.520;12.152;2023-02-22T00:23:25;7.20;99.90
24802;DHT22;12898;50.520;12.152;2023-02-22T00:25:53;7.20;99.90
24802;DHT22;12898;50.520;12.152;2023-02-22T00:28:20;7.20;99.90
24802;DHT22;12898;50.520;12.152;2023-02-22T00:30:49;7.10;99.90
24802;DHT22;12898;50.520;12.152;2023-02-22T00:33:15;7.10;99.90
24802;DHT22;12898;50.520;12.152;2023-02-22T00:35:41;7.10;99.90
24802;DHT22;12898;50.520;12.152;2023-02-22T00:38:11;7.10;99.90
24802;DHT22;12898;50.520;12.152;2023-02-22T00:40:38;7.10;99.90
24802;DHT22;12898;50.520;12.152;2023-02-22T00:43:05;7.00;99.90
24802;DHT22;12898;50.520;12.152;2023-02-22T00:45:32;7.00;99.90
24802;DHT22;12898;50.520;12.152;2023-02-22T00:47:59;7.00;99.90
24802;DHT22;12898;50.520;12.152;2023-02-22T00:50:27;7.00;99.90
24802;DHT22;12898;50.520;12.152;2023-02-22T00:52:55;7.00;99.90
24802;DHT22;12898;50.520;12.152;2023-02-22T00:55:27;7.00;99.90
24802;DHT22;12898;50.520;12.152;2023-02-22T00:57:56;7.00;99.90
24802;DHT22;12898;50.520;12.152;2023-02-22T01:02:50;7.00;99.90
24802;DHT22;12898;50.520;12.152;2023-02-22T01:05:18;7.10;99.90
24802;DHT22;12898;50.520;12.152;2023-02-22T01:07:46;7.10;99.90
24802;DHT22;12898;50.520;12.152;2023-02-22T01:10:12;7.00;99.90
24802;DHT22;12898;50.520;12.152;2023-02-22T01:12:39;7.00;99.90
24802;DHT22;12898;50.520;12.152;2023-02-22T01:15:07;7.00;99.90
24802;DHT22;12898;50.520;12.152;2023-02-22T01:17:37;7.00;99.90
24802;DHT22;12898;50.520;12.152;2023-02-22T01:20:06;6.90;99.90
24802;DHT22;12898;50.520;12.152;2023-02-22T01:22:38;7.00;99.90
24802;DHT22;12898;50.520;12.152;2023-02-22T01:25:05;6.90;99.90
24802;DHT22;12898;50.520;12.152;2023-02-22T01:27:33;6.90;99.90
24802;DHT22;12898;50.520;12.152;2023-02-22T01:29:59;6.90;99.90
24802;DHT22;12898;50.520;12.152;2023-02-22T01:32:25;6.90;99.90
24802;DHT22;12898;50.520;12.152;2023-02-22T01:34:54;6.90;99.90
24802;DHT22;12898;50.520;12.152;2023-02-22T01:37:20;6.90;99.90
24802;DHT22;12898;50.520;12.152;2023-02-22T01:39:46;6.90;99.90
24802;DHT22;12898;50.520;12.152;2023-02-22T01:42:12;6.90;99.90
24802;DHT22;12898;50.520;12.152;2023-02-22T01:44:38;6.90;99.90
24802;DHT22;12898;50.520;12.152;2023-02-22T01:47:06;6.80;99.90
24802;DHT22;12898;50.520;12.152;2023-02-22T01:49:40;6.80;99.90
24802;DHT22;12898;50.520;12.152;2023-02-22T01:52:11;6.80;99.90
24802;DHT22;12898;50.520;12.152;2023-02-22T01:54:47;6.80;99.90
24802;DHT22;12898;50.520;12.152;2023-02-22T01:57:23;6.80;99.90
24802;DHT22;12898;50.520;12.152;2023-02-22T01:59:53;6.80;99.90
24802;DHT22;12898;50.520;12.152;2023-02-22T02:02:22;6.90;99.90
24802;DHT22;12898;50.520;12.152;2023-02-22T02:04:51;6.80;99.90
24802;DHT22;12898;50.520;12.152;2023-02-22T02:07:20;6.80;99.90
24802;DHT22;12898;50.520;12.152;2023-02-22T02:10:05;6.80;99.90
24802;DHT22;12898;50.520;12.152;2023-02-22T02:12:35;6.80;99.90
24802;DHT22;12898;50.520;12.152;2023-02-22T02:15:22;6.80;99.90
24802;DHT22;12898;50.520;12.152;2023-02-22T02:17:52;6.70;99.90
24802;DHT22;12898;50.520;12.152;2023-02-22T02:24:11;6.80;99.90
24802;DHT22;12898;50.520;12.152;2023-02-22T02:27:09;6.80;99.90
24802;DHT22;12898;50.520;12.152;2023-02-22T02:33:10;6.70;99.90
24802;DHT22;12898;50.520;12.152;2023-02-22T02:36:09;6.70;99.90
24802;DHT22;12898;50.520;12.152;2023-02-22T02:38:51;6.70;99.90
24802;DHT22;12898;50.520;12.152;2023-02-22T02:41:24;6.70;99.90
24802;DHT22;12898;50.520;12.152;2023-02-22T02:44:30;6.70;99.90
24802;DHT22;12898;50.520;12.152;2023-02-22T02:47:26;6.80;99.90
24802;DHT22;12898;50.520;12.152;2023-02-22T02:52:23;6.70;99.90
24802;DHT22;12898;50.520;12.152;2023-02-22T02:54:51;6.70;99.90
24802;DHT22;12898;50.520;12.152;2023-02-22T02:57:17;6.70;99.90
24802;DHT22;12898;50.520;12.152;2023-02-22T02:59:43;6.70;99.90
24802;DHT22;12898;50.520;12.152;2023-02-22T03:02:49;6.70;99.90
24802;DHT22;12898;50.520;12.152;2023-02-22T03:08:04;6.60;99.90
24802;DHT22;12898;50.520;12.152;2023-02-22T03:10:54;6.70;99.90
24802;DHT22;12898;50.520;12.152;2023-02-22T03:13:44;6.70;99.90
24802;DHT22;12898;50.520;12.152;2023-02-22T03:16:49;6.70;99.90
24802;DHT22;12898;50.520;12.152;2023-02-22T03:22:21;6.70;99.90
24802;DHT22;12898;50.520;12.152;2023-02-22T03:28:15;6.70;99.90
24802;DHT22;12898;50.520;12.152;2023-02-22T03:30:50;6.70;99.90
24802;DHT22;12898;50.520;12.152;2023-02-22T03:33:24;6.70;99.90
24802;DHT22;12898;50.520;12.152;2023-02-22T03:36:04;6.70;99.90
24802;DHT22;12898;50.520;12.152;2023-02-22T03:38:36;6.70;99.90
24802;DHT22;12898;50.520;12.152;2023-02-22T03:41:04;6.70;99.90
24802;DHT22;12898;50.520;12.152;2023-02-22T03:43:40;6.70;99.90
24802;DHT22;12898;50.520;12.152;2023-02-22T03:46:08;6.80;99.90
24802;DHT22;12898;50.520;12.152;2023-02-22T03:51:12;6.70;99.90
24802;DHT22;12898;50.520;12.152;2023-02-22T03:53:42;6.70;99.90
24802;DHT22;12898;50.520;12.152;2023-02-22T03:56:17;6.80;99.90
24802;DHT22;12898;50.520;12.152;2023-02-22T03:58:47;6.70;99.90
24802;DHT22;12898;50.520;12.152;2023-02-22T04:01:13;6.70;99.90
24802;DHT22;12898;50.520;12.152;2023-02-22T04:03:39;6.70;99.90
24802;DHT22;12898;50.520;12.152;2023-02-22T04:06:07;6.70;99.90
24802;DHT22;12898;50.520;12.152;2023-02-22T04:08:33;6.70;99.90
24802;DHT22;12898;50.520;12.152;2023-02-22T04:10:59;6.70;99.90
24802;DHT22;12898;50.520;12.152;2023-02-22T04:13:26;6.70;99.90
24802;DHT22;12898;50.520;12.152;2023-02-22T04:15:52;6.70;99.90
24802;DHT22;12898;50.520;12.152;2023-02-22T04:18:18;6.70;99.90
24802;DHT22;12898;50.520;12.152;2023-02-22T04:20:44;6.60;99.90
24802;DHT22;12898;50.520;12.152;2023-02-22T04:23:10;6.60;99.90
24802;DHT22;12898;50.520;12.152;2023-02-22T04:25:36;6.70;99.90
24802;DHT22;12898;50.520;12.152;2023-02-22T04:28:01;6.60;99.90
24802;DHT22;12898;50.520;12.152;2023-02-22T04:30:27;6.60;99.90
24802;DHT22;12898;50.520;12.152;2023-02-22T04:32:55;6.60;99.90
24802;DHT22;12898;50.520;12.152;2023-02-22T04:35:21;6.60;99.90
24802;DHT22;12898;50.520;12.152;2023-02-22T04:37:47;6.60;99.90
24802;DHT22;12898;50.520;12.152;2023-02-22T04:40:15;6.60;99.90
24802;DHT22;12898;50.520;12.152;2023-02-22T04:42:41;6.60;99.90
24802;DHT22;12898;50.520;12.152;2023-02-22T04:45:08;6.60;99.90
24802;DHT22;12898;50.520;12.152;2023-02-22T04:47:35;6.60;99.90
24802;DHT22;12898;50.520;12.152;2023-02-22T04:50:05;6.60;99.90
24802;DHT22;12898;50.520;12.152;2023-02-22T04:52:32;6.60;99.90
24802;DHT22;12898;50.520;12.152;2023-02-22T04:54:58;6.60;99.90
24802;DHT22;12898;50.520;12.152;2023-02-22T04:57:24;6.60;99.90
24802;DHT22;12898;50.520;12.152;2023-02-22T04:59:49;6.60;99.90
24802;DHT22;12898;50.520;12.152;2023-02-22T05:02:16;6.60;99.90
24802;DHT22;12898;50.520;12.152;2023-02-22T05:04:42;6.60;99.90
24802;DHT22;12898;50.520;12.152;2023-02-22T05:07:09;6.60;99.90
24802;DHT22;12898;50.520;12.152;2023-02-22T05:09:34;6.60;99.90
24802;DHT22;12898;50.520;12.152;2023-02-22T05:12:00;6.60;99.90
24802;DHT22;12898;50.520;12.152;2023-02-22T05:14:25;6.60;99.90
24802;DHT22;12898;50.520;12.152;2023-02-22T05:16:54;6.60;99.90
24802;DHT22;12898;50.520;12.152;2023-02-22T05:19:20;6.60;99.90
24802;DHT22;12898;50.520;12.152;2023-02-22T05:21:46;6.60;99.90
24802;DHT22;12898;50.520;12.152;2023-02-22T05:24:12;6.60;99.90
24802;DHT22;12898;50.520;12.152;2023-02-22T05:26:37;6.50;99.90
24802;DHT22;12898;50.520;12.152;2023-02-22T05:29:05;6.60;99.90
24802;DHT22;12898;50.520;12.152;2023-02-22T05:31:31;6.50;99.90
24802;DHT22;12898;50.520;12.152;2023-02-22T05:33:56;6.50;99.90
24802;DHT22;12898;50.520;12.152;2023-02-22T05:36:23;6.50;99.90
24802;DHT22;12898;50.520;12.152;2023-02-22T05:38:49;6.50;99.90
24802;DHT22;12898;50.520;12.152;2023-02-22T05:41:14;6.50;99.90
24802;DHT22;12898;50.520;12.152;2023-02-22T05:43:40;6.50;99.90
24802;DHT22;12898;50.520;12.152;2023-02-22T05:46:06;6.50;99.90
24802;DHT22;12898;50.520;12.152;2023-02-22T05:48:33;6.50;99.90
24802;DHT22;12898;50.520;12.152;2023-02-22T05:50:58;6.50;99.90
24802;DHT22;12898;50.520;12.152;2023-02-22T05:53:24;6.40;99.90
24802;DHT22;12898;50.520;12.152;2023-02-22T05:55:50;6.40;99.90
24802;DHT22;12898;50.520;12.152;2023-02-22T05:58:16;6.30;99.90
24802;DHT22;12898;50.520;12.152;2023-02-22T06:00:42;6.30;99.90
24802;DHT22;12898;50.520;12.152;2023-02-22T06:03:09;6.20;99.90
24802;DHT22;12898;50.520;12.152;2023-02-22T06:05:36;6.20;99.90
24802;DHT22;12898;50.520;12.152;2023-02-22T06:08:02;6.10;99.90
24802;DHT22;12898;50.520;12.152;2023-02-22T06:10:29;6.00;99.90
24802;DHT22;12898;50.520;12.152;2023-02-22T06:12:55;5.90;99.90
24802;DHT22;12898;50.520;12.152;2023-02-22T06:15:23;5.80;99.90
24802;DHT22;12898;50.520;12.152;2023-02-22T06:17:50;5.70;99.90
24802;DHT22;12898;50.520;12.152;2023-02-22T06:20:18;5.60;99.90
24802;DHT22;12898;50.520;12.152;2023-02-22T06:22:46;5.50;99.90
24802;DHT22;12898;50.520;12.152;2023-02-22T06:25:15;5.40;99.90
24802;DHT22;12898;50.520;12.152;2023-02-22T06:27:41;5.30;99.90
24802;DHT22;12898;50.520;12.152;2023-02-22T06:30:09;5.20;99.90
24802;DHT22;12898;50.520;12.152;2023-02-22T06:32:36;5.20;99.90
24802;DHT22;12898;50.520;12.152;2023-02-22T06:35:02;5.10;99.90
24802;DHT22;12898;50.520;12.152;2023-02-22T06:37:28;5.10;99.90
24802;DHT22;12898;50.520;12.152;2023-02-22T06:39:54;5.10;99.90
24802;DHT22;12898;50.520;12.152;2023-02-22T06:42:20;5.00;99.90
24802;DHT22;12898;50.520;12.152;2023-02-22T06:44:46;5.00;99.90
24802;DHT22;12898;50.520;12.152;2023-02-22T06:47:11;5.10;99.90
24802;DHT22;12898;50.520;12.152;2023-02-22T06:49:37;5.10;99.90
24802;DHT22;12898;50.520;12.152;2023-02-22T06:52:04;5.10;99.90
24802;DHT22;12898;50.520;12.152;2023-02-22T06:54:31;5.10;99.90
24802;DHT22;12898;50.520;12.152;2023-02-22T06:56:57;5.20;99.90
24802;DHT22;12898;50.520;12.152;2023-02-22T06:59:22;5.20;99.90
24802;DHT22;12898;50.520;12.152;2023-02-22T07:01:48;5.20;99.90
24802;DHT22;12898;50.520;12.152;2023-02-22T07:04:14;5.30;99.90
24802;DHT22;12898;50.520;12.152;2023-02-22T07:06:48;5.30;99.90
24802;DHT22;12898;50.520;12.152;2023-02-22T07:09:15;5.40;99.90
24802;DHT22;12898;50.520;12.152;2023-02-22T07:11:41;5.50;99.90
24802;DHT22;12898;50.520;12.152;2023-02-22T07:14:07;5.50;99.90
24802;DHT22;12898;50.520;12.152;2023-02-22T07:16:32;5.60;99.90
24802;DHT22;12898;50.520;12.152;2023-02-22T07:18:58;5.70;99.90
24802;DHT22;12898;50.520;12.152;2023-02-22T07:21:28;5.90;99.90
24802;DHT22;12898;50.520;12.152;2023-02-22T07:23:57;6.00;99.90
24802;DHT22;12898;50.520;12.152;2023-02-22T07:26:24;6.20;99.90
24802;DHT22;12898;50.520;12.152;2023-02-22T07:28:51;6.30;99.90
24802;DHT22;12898;50.520;12.152;2023-02-22T07:31:17;6.40;99.90
24802;DHT22;12898;50.520;12.152;2023-02-22T07:33:45;6.50;99.90
24802;DHT22;12898;50.520;12.152;2023-02-22T07:36:11;6.60;99.90
24802;DHT22;12898;50.520;12.152;2023-02-22T07:38:39;6.80;99.90
24802;DHT22;12898;50.520;12.152;2023-02-22T07:41:05;6.90;99.90
24802;DHT22;12898;50.520;12.152;2023-02-22T07:43:31;7.00;99.90
24802;DHT22;12898;50.520;12.152;2023-02-22T07:45:58;7.10;99.90
24802;DHT22;12898;50.520;12.152;2023-02-22T07:48:28;7.30;99.90
24802;DHT22;12898;50.520;12.152;2023-02-22T07:50:55;7.40;99.90
24802;DHT22;12898;50.520;12.152;2023-02-22T07:53:26;7.60;99.90
24802;DHT22;12898;50.520;12.152;2023-02-22T07:55:59;7.70;99.90
24802;DHT22;12898;50.520;12.152;2023-02-22T07:58:27;7.80;99.90
24802;DHT22;12898;50.520;12.152;2023-02-22T08:00:54;7.90;99.90
24802;DHT22;12898;50.520;12.152;2023-02-22T08:03:23;8.10;99.90
24802;DHT22;12898;50.520;12.152;2023-02-22T08:05:52;8.20;99.90
24802;DHT22;12898;50.520;12.152;2023-02-22T08:08:20;8.30;99.90
24802;DHT22;12898;50.520;12.152;2023-02-22T08:10:47;8.40;99.90
24802;DHT22;12898;50.520;12.152;2023-02-22T08:13:14;8.50;99.90
24802;DHT22;12898;50.520;12.152;2023-02-22T08:15:41;8.60;99.90
24802;DHT22;12898;50.520;12.152;2023-02-22T08:18:10;8.70;99.90
24802;DHT22;12898;50.520;12.152;2023-02-22T08:20:40;8.80;99.90
24802;DHT22;12898;50.520;12.152;2023-02-22T08:23:06;8.90;99.90
24802;DHT22;12898;50.520;12.152;2023-02-22T08:25:33;8.90;99.90
24802;DHT22;12898;50.520;12.152;2023-02-22T08:28:01;9.00;99.90
24802;DHT22;12898;50.520;12.152;2023-02-22T08:30:32;9.00;99.90
24802;DHT22;12898;50.520;12.152;2023-02-22T08:32:59;9.10;99.90
24802;DHT22;12898;50.520;12.152;2023-02-22T08:35:27;9.20;99.90
24802;DHT22;12898;50.520;12.152;2023-02-22T08:37:56;9.40;99.90
24802;DHT22;12898;50.520;12.152;2023-02-22T08:40:25;9.50;99.90
24802;DHT22;12898;50.520;12.152;2023-02-22T08:42:53;9.70;99.90
24802;DHT22;12898;50.520;12.152;2023-02-22T08:45:19;9.90;99.90
24802;DHT22;12898;50.520;12.152;2023-02-22T08:47:45;10.10;99.90
24802;DHT22;12898;50.520;12.152;2023-02-22T08:50:25;10.30;99.90
24802;DHT22;12898;50.520;12.152;2023-02-22T08:52:54;10.50;99.90
24802;DHT22;12898;50.520;12.152;2023-02-22T08:55:24;10.80;99.90
24802;DHT22;12898;50.520;12.152;2023-02-22T08:57:51;11.00;99.90
24802;DHT22;12898;50.520;12.152;2023-02-22T09:00:18;11.30;99.90
24802;DHT22;12898;50.520;12.152;2023-02-22T09:02:45;11.40;99.90
24802;DHT22;12898;50.520;12.152;2023-02-22T09:05:11;11.40;99.90
24802;DHT22;12898;50.520;12.152;2023-02-22T09:07:40;11.50;99.90
24802;DHT22;12898;50.520;12.152;2023-02-22T09:10:07;11.50;99.90
24802;DHT22;12898;50.520;12.152;2023-02-22T09:12:35;11.50;99.90
24802;DHT22;12898;50.520;12.152;2023-02-22T09:15:01;11.50;99.90
24802;DHT22;12898;50.520;12.152;2023-02-22T09:17:27;11.50;99.90
24802;DHT22;12898;50.520;12.152;2023-02-22T09:19:52;11.60;99.90
24802;DHT22;12898;50.520;12.152;2023-02-22T09:22:18;11.60;99.90
24802;DHT22;12898;50.520;12.152;2023-02-22T09:24:44;11.80;99.90
24802;DHT22;12898;50.520;12.152;2023-02-22T09:27:10;12.00;99.90
24802;DHT22;12898;50.520;12.152;2023-02-22T09:29:36;12.30;99.90
24802;DHT22;12898;50.520;12.152;2023-02-22T09:32:04;12.60;99.90
24802;DHT22;12898;50.520;12.152;2023-02-22T09:34:30;12.90;99.90
24802;DHT22;12898;50.520;12.152;2023-02-22T09:36:59;13.10;99.90
24802;DHT22;12898;50.520;12.152;2023-02-22T09:39:25;13.40;99.90
24802;DHT22;12898;50.520;12.152;2023-02-22T09:42:02;13.50;99.90
24802;DHT22;12898;50.520;12.152;2023-02-22T09:44:43;13.80;99.90
24802;DHT22;12898;50.520;12.152;2023-02-22T09:47:18;13.80;99.90
24802;DHT22;12898;50.520;12.152;2023-02-22T09:49:55;13.90;99.90
24802;DHT22;12898;50.520;12.152;2023-02-22T09:52:29;14.00;99.90
24802;DHT22;12898;50.520;12.152;2023-02-22T09:55:27;14.10;99.90
24802;DHT22;12898;50.520;12.152;2023-02-22T09:58:01;14.10;99.90
24802;DHT22;12898;50.520;12.152;2023-02-22T10:00:33;14.20;99.90
24802;DHT22;12898;50.520;12.152;2023-02-22T10:03:24;14.50;99.90
24802;DHT22;12898;50.520;12.152;2023-02-22T10:06:20;14.40;99.90
24802;DHT22;12898;50.520;12.152;2023-02-22T10:08:48;14.70;99.90
24802;DHT22;12898;50.520;12.152;2023-02-22T10:11:30;14.80;99.90
24802;DHT22;12898;50.520;12.152;2023-02-22T10:25:27;15.40;99.90
24802;DHT22;12898;50.520;12.152;2023-02-22T10:28:37;15.70;99.90
24802;DHT22;12898;50.520;12.152;2023-02-22T10:31:07;15.80;98.60
24802;DHT22;12898;50.520;12.152;2023-02-22T10:33:47;15.80;99.00
24802;DHT22;12898;50.520;12.152;2023-02-22T10:36:20;15.90;99.00
24802;DHT22;12898;50.520;12.152;2023-02-22T10:38:57;15.80;97.40
24802;DHT22;12898;50.520;12.152;2023-02-22T10:41:39;15.90;99.00
24802;DHT22;12898;50.520;12.152;2023-02-22T10:44:09;16.10;97.70
24802;DHT22;12898;50.520;12.152;2023-02-22T10:46:35;16.00;97.20
24802;DHT22;12898;50.520;12.152;2023-02-22T10:49:04;16.00;97.20
24802;DHT22;12898;50.520;12.152;2023-02-22T10:51:34;16.10;97.60
24802;DHT22;12898;50.520;12.152;2023-02-22T10:56:49;16.20;94.10
24802;DHT22;12898;50.520;12.152;2023-02-22T10:59:52;16.20;95.20
24802;DHT22;12898;50.520;12.152;2023-02-22T11:02:26;16.30;94.90
24802;DHT22;12898;50.520;12.152;2023-02-22T11:04:57;16.30;96.10
24802;DHT22;12898;50.520;12.152;2023-02-22T11:07:32;16.50;95.20
24802;DHT22;12898;50.520;12.152;2023-02-22T11:10:02;16.50;92.90
24802;DHT22;12898;50.520;12.152;2023-02-22T11:14:57;16.60;93.40
24802;DHT22;12898;50.520;12.152;2023-02-22T11:17:48;16.70;93.60
24802;DHT22;12898;50.520;12.152;2023-02-22T11:20:19;16.50;92.30
24802;DHT22;12898;50.520;12.152;2023-02-22T11:22:51;16.20;92.20
24802;DHT22;12898;50.520;12.152;2023-02-22T11:25:24;16.00;93.00
24802;DHT22;12898;50.520;12.152;2023-02-22T11:27:52;15.80;92.90
24802;DHT22;12898;50.520;12.152;2023-02-22T11:30:28;15.60;94.40
24802;DHT22;12898;50.520;12.152;2023-02-22T11:33:11;15.50;95.00
24802;DHT22;12898;50.520;12.152;2023-02-22T11:36:02;15.50;94.30
24802;DHT22;12898;50.520;12.152;2023-02-22T11:38:35;15.50;96.00
24802;DHT22;12898;50.520;12.152;2023-02-22T11:41:28;15.70;94.60
24802;DHT22;12898;50.520;12.152;2023-02-22T11:44:12;16.20;94.20
24802;DHT22;12898;50.520;12.152;2023-02-22T11:47:10;16.70;93.90
24802;DHT22;12898;50.520;12.152;2023-02-22T11:49:38;16.80;91.00
24802;DHT22;12898;50.520;12.152;2023-02-22T11:52:19;16.80;90.20
24802;DHT22;12898;50.520;12.152;2023-02-22T12:10:13;15.30;94.30
24802;DHT22;12898;50.520;12.152;2023-02-22T12:21:15;15.00;96.30
24802;DHT22;12898;50.520;12.152;2023-02-22T12:26:36;15.50;96.70
24802;DHT22;12898;50.520;12.152;2023-02-22T12:32:03;16.30;94.80
24802;DHT22;12898;50.520;12.152;2023-02-22T12:34:56;16.60;93.50
24802;DHT22;12898;50.520;12.152;2023-02-22T12:38:03;16.90;92.40
24802;DHT22;12898;50.520;12.152;2023-02-22T12:43:48;16.90;90.30
24802;DHT22;12898;50.520;12.152;2023-02-22T12:46:19;16.80;91.60
24802;DHT22;12898;50.520;12.152;2023-02-22T12:49:11;16.70;90.80
24802;DHT22;12898;50.520;12.152;2023-02-22T12:52:27;16.40;91.30
24802;DHT22;12898;50.520;12.152;2023-02-22T12:55:11;16.30;92.30
24802;DHT22;12898;50.520;12.152;2023-02-22T13:03:00;16.60;91.30
24802;DHT22;12898;50.520;12.152;2023-02-22T13:05:33;16.70;90.00
24802;DHT22;12898;50.520;12.152;2023-02-22T13:10:37;16.90;89.90
24802;DHT22;12898;50.520;12.152;2023-02-22T13:13:34;16.90;89.30
24802;DHT22;12898;50.520;12.152;2023-02-22T13:19:02;17.00;90.70
24802;DHT22;12898;50.520;12.152;2023-02-22T13:27:27;17.00;87.50
24802;DHT22;12898;50.520;12.152;2023-02-22T13:29:58;16.90;86.80
24802;DHT22;12898;50.520;12.152;2023-02-22T13:32:45;16.80;86.80
24802;DHT22;12898;50.520;12.152;2023-02-22T13:39:03;16.70;90.30
24802;DHT22;12898;50.520;12.152;2023-02-22T13:44:43;16.90;90.60
24802;DHT22;12898;50.520;12.152;2023-02-22T13:48:11;16.90;90.10
24802;DHT22;12898;50.520;12.152;2023-02-22T13:53:46;16.80;89.50
24802;DHT22;12898;50.520;12.152;2023-02-22T13:56:15;16.70;88.60
24802;DHT22;12898;50.520;12.152;2023-02-22T13:59:24;16.60;87.60
24802;DHT22;12898;50.520;12.152;2023-02-22T14:01:52;16.50;88.70
24802;DHT22;12898;50.520;12.152;2023-02-22T14:06:58;16.40;90.20
24802;DHT22;12898;50.520;12.152;2023-02-22T14:09:49;16.30;89.70
24802;DHT22;12898;50.520;12.152;2023-02-22T14:17:42;16.20;91.00
24802;DHT22;12898;50.520;12.152;2023-02-22T14:22:42;16.10;91.60
24802;DHT22;12898;50.520;12.152;2023-02-22T14:25:29;16.00;91.20
24802;DHT22;12898;50.520;12.152;2023-02-22T14:27:57;15.90;92.80
24802;DHT22;12898;50.520;12.152;2023-02-22T14:30:26;15.80;92.30
24802;DHT22;12898;50.520;12.152;2023-02-22T14:32:53;15.80;91.90
24802;DHT22;12898;50.520;12.152;2023-02-22T14:35:19;15.70;91.90
24802;DHT22;12898;50.520;12.152;2023-02-22T14:37:58;15.70;92.30
24802;DHT22;12898;50.520;12.152;2023-02-22T14:40:30;15.70;91.90
24802;DHT22;12898;50.520;12.152;2023-02-22T14:43:12;15.70;93.40
24802;DHT22;12898;50.520;12.152;2023-02-22T14:45:55;15.60;93.40
24802;DHT22;12898;50.520;12.152;2023-02-22T14:48:31;15.50;92.30
24802;DHT22;12898;50.520;12.152;2023-02-22T14:51:12;15.30;93.40
24802;DHT22;12898;50.520;12.152;2023-02-22T14:53:47;15.30;93.60
24802;DHT22;12898;50.520;12.152;2023-02-22T14:56:32;15.20;92.90
24802;DHT22;12898;50.520;12.152;2023-02-22T14:59:16;15.20;93.10
24802;DHT22;12898;50.520;12.152;2023-02-22T15:01:45;15.10;93.00
24802;DHT22;12898;50.520;12.152;2023-02-22T15:06:50;15.10;95.50
24802;DHT22;12898;50.520;12.152;2023-02-22T15:09:28;15.10;95.40
24802;DHT22;12898;50.520;12.152;2023-02-22T15:14:34;15.00;95.00
24802;DHT22;12898;50.520;12.152;2023-02-22T15:17:23;14.90;94.60
24802;DHT22;12898;50.520;12.152;2023-02-22T15:19:50;14.80;94.60
24802;DHT22;12898;50.520;12.152;2023-02-22T15:22:32;14.70;95.40
24802;DHT22;12898;50.520;12.152;2023-02-22T15:25:05;14.60;95.60
24802;DHT22;12898;50.520;12.152;2023-02-22T15:27:34;14.60;95.80
24802;DHT22;12898;50.520;12.152;2023-02-22T15:30:05;14.50;96.40
24802;DHT22;12898;50.520;12.152;2023-02-22T15:32:51;14.40;96.60
24802;DHT22;12898;50.520;12.152;2023-02-22T15:35:29;14.40;97.00
24802;DHT22;12898;50.520;12.152;2023-02-22T15:38:05;14.30;97.50
24802;DHT22;12898;50.520;12.152;2023-02-22T15:40:40;14.20;97.30
24802;DHT22;12898;50.520;12.152;2023-02-22T15:43:21;14.10;97.90
24802;DHT22;12898;50.520;12.152;2023-02-22T15:45:53;14.10;98.80
24802;DHT22;12898;50.520;12.152;2023-02-22T15:48:19;13.90;99.60
24802;DHT22;12898;50.520;12.152;2023-02-22T15:53:29;13.80;99.90
24802;DHT22;12898;50.520;12.152;2023-02-22T15:56:05;13.70;99.90
24802;DHT22;12898;50.520;12.152;2023-02-22T15:58:34;13.60;99.90
24802;DHT22;12898;50.520;12.152;2023-02-22T16:01:08;13.50;99.90
24802;DHT22;12898;50.520;12.152;2023-02-22T16:03:49;13.40;99.90
24802;DHT22;12898;50.520;12.152;2023-02-22T16:08:57;13.10;99.90
24802;DHT22;12898;50.520;12.152;2023-02-22T16:11:31;13.00;99.90
24802;DHT22;12898;50.520;12.152;2023-02-22T16:14:02;12.80;99.90
24802;DHT22;12898;50.520;12.152;2023-02-22T16:16:35;12.60;99.90
24802;DHT22;12898;50.520;12.152;2023-02-22T16:19:28;12.40;99.90
24802;DHT22;12898;50.520;12.152;2023-02-22T16:22:01;12.10;99.90
24802;DHT22;12898;50.520;12.152;2023-02-22T16:24:30;11.70;99.90
24802;DHT22;12898;50.520;12.152;2023-02-22T16:27:18;11.50;99.90
24802;DHT22;12898;50.520;12.152;2023-02-22T16:30:16;11.20;99.90
24802;DHT22;12898;50.520;12.152;2023-02-22T16:32:50;11.00;99.90
24802;DHT22;12898;50.520;12.152;2023-02-22T16:35:17;10.80;99.90
24802;DHT22;12898;50.520;12.152;2023-02-22T16:37:51;10.60;99.90
24802;DHT22;12898;50.520;12.152;2023-02-22T16:40:21;10.50;99.90
24802;DHT22;12898;50.520;12.152;2023-02-22T16:43:03;10.40;99.90
24802;DHT22;12898;50.520;12.152;2023-02-22T16:45:31;10.20;99.90
24802;DHT22;12898;50.520;12.152;2023-02-22T16:48:01;10.10;99.90
24802;DHT22;12898;50.520;12.152;2023-02-22T16:50:37;10.00;99.90
24802;DHT22;12898;50.520;12.152;2023-02-22T16:53:02;9.90;99.90
24802;DHT22;12898;50.520;12.152;2023-02-22T16:55:28;9.80;99.90
24802;DHT22;12898;50.520;12.152;2023-02-22T16:57:55;9.70;99.90
24802;DHT22;12898;50.520;12.152;2023-02-22T17:00:22;9.60;99.90
24802;DHT22;12898;50.520;12.152;2023-02-22T17:02:57;9.50;99.90
24802;DHT22;12898;50.520;12.152;2023-02-22T17:05:23;9.40;99.90
24802;DHT22;12898;50.520;12.152;2023-02-22T17:07:49;9.40;99.90
24802;DHT22;12898;50.520;12.152;2023-02-22T17:10:16;9.30;99.90
24802;DHT22;12898;50.520;12.152;2023-02-22T17:12:47;9.20;99.90
24802;DHT22;12898;50.520;12.152;2023-02-22T17:15:27;9.10;99.90
24802;DHT22;12898;50.520;12.152;2023-02-22T17:17:55;9.00;99.90
24802;DHT22;12898;50.520;12.152;2023-02-22T17:20:22;8.90;99.90
24802;DHT22;12898;50.520;12.152;2023-02-22T17:23:03;8.80;99.90
24802;DHT22;12898;50.520;12.152;2023-02-22T17:28:08;8.70;99.90
24802;DHT22;12898;50.520;12.152;2023-02-22T17:30:34;8.60;99.90
24802;DHT22;12898;50.520;12.152;2023-02-22T17:33:02;8.50;99.90
24802;DHT22;12898;50.520;12.152;2023-02-22T17:35:31;8.50;99.90
24802;DHT22;12898;50.520;12.152;2023-02-22T17:37:58;8.50;99.90
24802;DHT22;12898;50.520;12.152;2023-02-22T17:40:26;8.40;99.90
24802;DHT22;12898;50.520;12.152;2023-02-22T17:42:52;8.40;99.90
24802;DHT22;12898;50.520;12.152;2023-02-22T17:45:21;8.40;99.90
24802;DHT22;12898;50.520;12.152;2023-02-22T17:47:49;8.30;99.90
24802;DHT22;12898;50.520;12.152;2023-02-22T17:50:16;8.30;99.90
24802;DHT22;12898;50.520;12.152;2023-02-22T17:52:42;8.20;99.90
24802;DHT22;12898;50.520;12.152;2023-02-22T17:55:10;8.10;99.90
24802;DHT22;12898;50.520;12.152;2023-02-22T17:57:37;8.10;99.90